createdAt,value
2022-08-21T00:00:18.470Z,79.27
2022-08-21T00:02:52.621Z,79.03
2022-08-21T00:05:20.389Z,79.01
2022-08-21T00:07:47.829Z,79.06
2022-08-21T00:10:15.021Z,79.09
2022-08-21T00:12:43.902Z,78.86
2022-08-21T00:15:13.737Z,79.12
2022-08-21T00:17:41.658Z,79.35
2022-08-21T00:20:11.160Z,79.37
2022-08-21T00:22:38.683Z,79.51
2022-08-21T00:25:07.626Z,79.62
2022-08-21T00:27:35.029Z,79.54
2022-08-21T00:30:04.134Z,79.75
2022-08-21T00:32:31.217Z,79.71
2022-08-21T00:34:58.319Z,80.01
2022-08-21T00:37:25.827Z,80.05
2022-08-21T00:39:52.888Z,80.20
2022-08-21T00:42:21.388Z,80.46
2022-08-21T00:44:51.182Z,80.31
2022-08-21T00:47:19.666Z,80.43
2022-08-21T00:49:46.912Z,80.36
2022-08-21T00:52:20.135Z,80.20
2022-08-21T00:54:48.607Z,80.29
2022-08-21T00:57:20.707Z,80.23
2022-08-21T00:59:52.978Z,80.34
2022-08-21T01:02:21.570Z,80.30
2022-08-21T01:04:49.419Z,80.16
2022-08-21T01:07:18.261Z,80.07
2022-08-21T01:09:50.463Z,80.21
2022-08-21T01:12:18.824Z,80.20
2022-08-21T01:14:46.456Z,80.18
2022-08-21T01:17:16.823Z,80.05
2022-08-21T01:19:44.709Z,80.24
2022-08-21T01:22:12.175Z,80.13
2022-08-21T01:24:39.415Z,80.09
2022-08-21T01:27:06.621Z,80.19
2022-08-21T01:29:59.431Z,80.00
2022-08-21T01:32:27.198Z,79.82
2022-08-21T01:34:54.588Z,79.76
2022-08-21T01:37:23.506Z,79.90
2022-08-21T01:39:50.944Z,79.96
2022-08-21T01:42:18.304Z,79.98
2022-08-21T01:44:45.569Z,79.87
2022-08-21T01:47:15.351Z,79.87
2022-08-21T01:49:45.782Z,79.91
2022-08-21T01:52:13.224Z,79.92
2022-08-21T01:54:41.030Z,80.13
2022-08-21T01:57:09.024Z,80.16
2022-08-21T01:59:36.864Z,80.25
2022-08-21T02:02:05.142Z,80.55
2022-08-21T02:04:33.713Z,80.58
2022-08-21T02:07:02.398Z,80.81
2022-08-21T02:09:29.704Z,80.39
2022-08-21T02:11:57.984Z,80.34
2022-08-21T02:14:32.017Z,80.18
2022-08-21T02:17:09.199Z,80.25
2022-08-21T02:19:40.132Z,80.25
2022-08-21T02:22:11.826Z,80.45
2022-08-21T02:24:54.049Z,80.84
2022-08-21T02:27:26.609Z,80.80
2022-08-21T02:29:57.708Z,80.83
2022-08-21T02:32:25.611Z,80.84
2022-08-21T02:34:53.460Z,80.98
2022-08-21T02:37:20.750Z,81.23
2022-08-21T02:39:48.095Z,80.89
2022-08-21T02:42:15.401Z,80.84
2022-08-21T02:44:42.633Z,81.01
2022-08-21T02:47:09.667Z,80.87
2022-08-21T02:49:36.950Z,81.21
2022-08-21T02:52:06.469Z,81.23
2022-08-21T02:54:33.623Z,81.49
2022-08-21T02:57:00.710Z,81.19
2022-08-21T02:59:27.866Z,81.38
2022-08-21T03:01:55.346Z,81.40
2022-08-21T03:04:23.232Z,81.53
2022-08-21T03:06:50.392Z,81.66
2022-08-21T03:09:17.710Z,81.59
2022-08-21T03:11:45.078Z,81.91
2022-08-21T03:14:12.180Z,81.96
2022-08-21T03:16:39.338Z,82.14
2022-08-21T03:19:06.499Z,82.21
2022-08-21T03:21:34.355Z,82.38
2022-08-21T03:24:04.282Z,82.43
2022-08-21T03:26:32.266Z,82.60
2022-08-21T03:28:59.873Z,82.27
2022-08-21T03:31:32.009Z,82.43
2022-08-21T03:33:59.914Z,82.27
2022-08-21T03:36:27.299Z,82.24
2022-08-21T03:38:54.642Z,81.83
2022-08-21T03:41:22.872Z,81.83
2022-08-21T03:43:50.019Z,81.89
2022-08-21T03:46:17.294Z,81.89
2022-08-21T03:48:44.381Z,82.06
2022-08-21T03:51:11.419Z,82.07
2022-08-21T03:53:38.711Z,82.16
2022-08-21T03:56:06.626Z,82.24
2022-08-21T03:58:33.991Z,82.19
2022-08-21T04:01:03.833Z,81.77
2022-08-21T04:03:30.900Z,81.89
2022-08-21T04:05:58.119Z,82.17
2022-08-21T04:08:25.271Z,82.28
2022-08-21T04:10:56.901Z,82.58
2022-08-21T04:13:24.163Z,82.54
2022-08-21T04:15:51.698Z,82.18
2022-08-21T04:18:19.436Z,82.52
2022-08-21T04:20:50.183Z,82.35
2022-08-21T04:23:23.572Z,82.29
2022-08-21T04:25:52.390Z,82.29
2022-08-21T04:28:19.465Z,82.18
2022-08-21T04:30:46.989Z,82.24
2022-08-21T04:33:14.854Z,82.02
2022-08-21T04:35:43.249Z,81.96
2022-08-21T04:38:10.459Z,81.81
2022-08-21T04:40:37.983Z,81.87
2022-08-21T04:43:08.859Z,81.75
2022-08-21T04:45:45.572Z,81.56
2022-08-21T04:48:14.555Z,81.35
2022-08-21T04:50:48.940Z,81.12
2022-08-21T04:53:37.500Z,81.29
2022-08-21T04:56:09.730Z,81.24
2022-08-21T04:58:39.992Z,81.25
2022-08-21T05:01:12.784Z,81.19
2022-08-21T05:03:42.277Z,81.34
2022-08-21T05:06:13.180Z,81.01
2022-08-21T05:08:41.343Z,80.98
2022-08-21T05:11:08.600Z,80.85
2022-08-21T05:13:36.541Z,80.82
2022-08-21T05:16:04.205Z,80.73
2022-08-21T05:18:31.315Z,80.88
2022-08-21T05:20:58.458Z,81.06
2022-08-21T05:23:26.182Z,80.84
2022-08-21T05:25:54.899Z,80.66
2022-08-21T05:28:22.011Z,80.96
2022-08-21T05:30:49.186Z,81.00
2022-08-21T05:33:16.998Z,80.84
2022-08-21T05:35:44.392Z,80.78
2022-08-21T05:38:16.796Z,80.93
2022-08-21T05:40:46.830Z,81.17
2022-08-21T05:43:14.240Z,81.48
2022-08-21T05:45:43.676Z,81.82
2022-08-21T05:48:23.662Z,82.03
2022-08-21T05:50:52.862Z,82.23
2022-08-21T05:53:22.754Z,82.49
2022-08-21T05:55:50.943Z,82.51
2022-08-21T05:58:23.930Z,82.66
2022-08-21T06:00:52.545Z,82.79
2022-08-21T06:03:27.984Z,82.99
2022-08-21T06:05:56.883Z,83.08
2022-08-21T06:08:25.415Z,83.53
2022-08-21T06:10:53.992Z,83.32
2022-08-21T06:13:23.049Z,83.30
2022-08-21T06:15:51.272Z,83.54
2022-08-21T06:18:18.548Z,84.00
2022-08-21T06:20:45.747Z,84.22
2022-08-21T06:23:12.895Z,84.13
2022-08-21T06:25:40.012Z,84.37
2022-08-21T06:28:11.372Z,84.70
2022-08-21T06:30:39.858Z,85.05
2022-08-21T06:33:08.940Z,85.07
2022-08-21T06:35:36.663Z,85.45
2022-08-21T06:38:07.581Z,85.23
2022-08-21T06:40:35.591Z,85.26
2022-08-21T06:43:12.603Z,84.78
2022-08-21T06:45:42.734Z,84.69
2022-08-21T06:48:10.173Z,84.98
2022-08-21T06:50:37.908Z,85.05
2022-08-21T06:53:13.623Z,84.97
2022-08-21T06:55:47.552Z,85.13
2022-08-21T06:58:15.527Z,85.06
2022-08-21T07:00:46.288Z,84.88
2022-08-21T07:03:29.209Z,84.97
2022-08-21T07:05:57.967Z,85.11
2022-08-21T07:08:27.087Z,84.80
2022-08-21T07:10:56.116Z,84.51
2022-08-21T07:13:23.309Z,84.57
2022-08-21T07:15:50.583Z,84.70
2022-08-21T07:18:18.253Z,84.87
2022-08-21T07:20:46.700Z,84.97
2022-08-21T07:23:24.109Z,84.91
2022-08-21T07:25:51.663Z,84.67
2022-08-21T07:28:19.077Z,84.47
2022-08-21T07:30:47.240Z,84.52
2022-08-21T07:33:14.378Z,84.19
2022-08-21T07:35:42.104Z,84.02
2022-08-21T07:38:09.281Z,83.77
2022-08-21T07:40:36.663Z,83.79
2022-08-21T07:43:04.100Z,83.63
2022-08-21T07:45:31.356Z,83.47
2022-08-21T07:47:58.542Z,83.69
2022-08-21T07:50:26.765Z,83.54
2022-08-21T07:52:54.122Z,83.54
2022-08-21T07:55:22.945Z,83.44
2022-08-21T07:57:50.358Z,83.39
2022-08-21T08:00:23.039Z,83.41
2022-08-21T08:02:52.363Z,83.18
2022-08-21T08:05:23.143Z,83.46
2022-08-21T08:07:50.744Z,83.03
2022-08-21T08:10:18.862Z,82.90
2022-08-21T08:12:47.063Z,82.07
2022-08-21T08:15:19.221Z,81.40
2022-08-21T08:17:46.935Z,81.21
2022-08-21T08:20:16.586Z,81.47
2022-08-21T08:22:44.048Z,81.42
2022-08-21T08:25:28.457Z,81.55
2022-08-21T08:28:16.323Z,81.39
2022-08-21T08:30:47.347Z,81.16
2022-08-21T08:33:16.127Z,81.40
2022-08-21T08:35:47.543Z,81.53
2022-08-21T08:38:21.394Z,80.56
2022-08-21T08:41:16.113Z,80.14
2022-08-21T08:43:53.365Z,80.60
2022-08-21T08:46:44.863Z,80.43
2022-08-21T08:49:21.620Z,80.11
2022-08-21T08:51:56.009Z,80.11
2022-08-21T08:54:34.703Z,79.65
2022-08-21T08:57:04.383Z,79.67
2022-08-21T08:59:51.868Z,79.34
2022-08-21T09:02:22.364Z,78.46
2022-08-21T09:04:51.754Z,78.18
2022-08-21T09:07:43.585Z,77.50
2022-08-21T09:10:11.632Z,77.62
2022-08-21T09:13:20.386Z,77.68
2022-08-21T09:16:25.305Z,78.16
2022-08-21T09:18:55.648Z,78.49
2022-08-21T09:21:22.765Z,78.20
2022-08-21T09:24:11.720Z,78.10
2022-08-21T09:26:54.103Z,78.30
2022-08-21T09:29:26.103Z,78.23
2022-08-21T09:31:53.866Z,78.28
2022-08-21T09:34:30.463Z,78.88
2022-08-21T09:36:58.677Z,78.98
2022-08-21T09:39:30.946Z,79.20
2022-08-21T09:41:59.425Z,79.38
2022-08-21T09:44:32.983Z,79.72
2022-08-21T09:47:00.439Z,79.62
2022-08-21T09:49:30.245Z,79.66
2022-08-21T09:51:59.852Z,79.39
2022-08-21T09:54:32.439Z,79.27
2022-08-21T09:57:39.562Z,79.53
2022-08-21T10:00:25.684Z,79.38
2022-08-21T10:02:52.956Z,79.26
2022-08-21T10:05:26.574Z,79.28
2022-08-21T10:07:53.829Z,79.54
2022-08-21T10:10:24.254Z,79.05
2022-08-21T10:13:06.714Z,79.47
2022-08-21T10:15:56.824Z,78.91
2022-08-21T10:18:29.741Z,78.83
2022-08-21T10:21:29.202Z,78.53
2022-08-21T10:24:30.874Z,78.63
2022-08-21T10:27:14.578Z,79.16
2022-08-21T10:29:41.861Z,79.27
2022-08-21T10:32:38.907Z,78.81
2022-08-21T10:35:20.828Z,79.09
2022-08-21T10:38:23.510Z,79.10
2022-08-21T10:40:59.024Z,78.95
2022-08-21T10:43:51.598Z,79.18
2022-08-21T10:46:43.911Z,79.03
2022-08-21T10:49:13.872Z,79.50
2022-08-21T10:51:56.473Z,79.64
2022-08-21T10:54:42.893Z,79.48
2022-08-21T10:57:31.972Z,80.00
2022-08-21T11:00:15.425Z,79.88
2022-08-21T11:03:01.230Z,79.53
2022-08-21T11:05:47.554Z,79.58
2022-08-21T11:08:43.541Z,79.89
2022-08-21T11:11:28.118Z,80.00
2022-08-21T11:14:34.833Z,79.83
2022-08-21T11:17:14.407Z,80.25
2022-08-21T11:19:51.548Z,80.22
2022-08-21T11:22:18.652Z,80.01
2022-08-21T11:24:53.704Z,79.54
2022-08-21T11:27:35.676Z,80.12
2022-08-21T11:30:03.208Z,79.93
2022-08-21T11:32:39.387Z,79.81
2022-08-21T11:35:24.786Z,80.24
2022-08-21T11:37:55.021Z,80.41
2022-08-21T11:40:31.306Z,80.31
2022-08-21T11:43:18.172Z,80.64
2022-08-21T11:45:51.735Z,80.32
2022-08-21T11:48:40.278Z,80.26
2022-08-21T11:51:14.821Z,80.49
2022-08-21T11:54:07.466Z,80.40
2022-08-21T11:56:34.657Z,80.51
2022-08-21T11:59:08.117Z,80.02
2022-08-21T12:01:41.813Z,80.32
2022-08-21T12:04:35.887Z,80.10
2022-08-21T12:07:16.315Z,79.78
2022-08-21T12:09:55.784Z,79.89
2022-08-21T12:12:39.055Z,79.82
2022-08-21T12:15:15.784Z,79.52
2022-08-21T12:18:04.143Z,79.98
2022-08-21T12:20:31.481Z,79.96
2022-08-21T12:23:13.696Z,79.91
2022-08-21T12:25:45.251Z,79.47
2022-08-21T12:28:16.951Z,79.37
2022-08-21T12:30:47.191Z,79.15
2022-08-21T12:33:20.002Z,78.84
2022-08-21T12:35:50.827Z,78.71
2022-08-21T12:38:29.629Z,77.80
2022-08-21T12:41:02.034Z,77.72
2022-08-21T12:43:33.037Z,77.88
2022-08-21T12:46:02.028Z,77.90
2022-08-21T12:48:45.241Z,77.31
2022-08-21T12:51:13.935Z,77.04
2022-08-21T12:53:51.663Z,76.21
2022-08-21T12:56:21.352Z,75.98
2022-08-21T12:59:06.265Z,75.65
2022-08-21T13:01:41.445Z,75.33
2022-08-21T13:04:14.272Z,75.23
2022-08-21T13:06:46.103Z,75.89
2022-08-21T13:09:18.005Z,75.54
2022-08-21T13:11:48.425Z,75.58
2022-08-21T13:14:34.924Z,75.44
2022-08-21T13:17:08.059Z,75.84
2022-08-21T13:19:35.769Z,76.10
2022-08-21T13:22:33.050Z,75.57
2022-08-21T13:24:51.693Z,75.50
2022-08-21T13:27:24.814Z,75.39
2022-08-21T13:30:04.343Z,75.67
2022-08-21T13:32:34.417Z,75.75
2022-08-21T13:35:10.564Z,75.57
2022-08-21T13:37:41.307Z,75.77
2022-08-21T13:40:16.186Z,75.83
2022-08-21T13:42:46.275Z,75.70
2022-08-21T13:45:22.624Z,76.14
2022-08-21T13:47:50.459Z,76.46
2022-08-21T13:50:21.702Z,76.17
2022-08-21T13:53:02.113Z,76.33
2022-08-21T13:55:39.642Z,76.69
2022-08-21T13:58:07.778Z,76.75
2022-08-21T14:00:47.868Z,76.57
2022-08-21T14:03:39.787Z,76.68
2022-08-21T14:06:18.984Z,77.59
2022-08-21T14:09:02.071Z,77.72
2022-08-21T14:11:35.424Z,77.32
2022-08-21T14:14:06.602Z,77.02
2022-08-21T14:16:53.833Z,76.92
2022-08-21T14:19:27.983Z,77.05
2022-08-21T14:21:55.953Z,76.99
2022-08-21T14:24:23.081Z,77.06
2022-08-21T14:27:17.929Z,77.15
2022-08-21T14:29:45.158Z,77.03
2022-08-21T14:32:25.028Z,77.02
2022-08-21T14:34:53.035Z,76.95
2022-08-21T14:37:25.125Z,76.85
2022-08-21T14:39:52.529Z,76.60
2022-08-21T14:42:20.221Z,76.58
2022-08-21T14:44:47.578Z,76.47
2022-08-21T14:47:14.747Z,76.29
2022-08-21T14:49:41.923Z,76.37
2022-08-21T14:52:09.162Z,76.20
2022-08-21T14:54:36.316Z,76.15
2022-08-21T14:57:09.796Z,76.01
2022-08-21T14:59:38.443Z,75.89
2022-08-21T15:02:06.973Z,76.12
2022-08-21T15:04:37.162Z,76.43
2022-08-21T15:07:04.385Z,76.23
2022-08-21T15:09:31.643Z,76.44
2022-08-21T15:12:01.636Z,76.68
2022-08-21T15:14:32.095Z,76.76
2022-08-21T15:16:59.500Z,76.95
2022-08-21T15:19:27.224Z,77.03
2022-08-21T15:21:54.826Z,77.07
2022-08-21T15:24:21.918Z,77.03
2022-08-21T15:26:49.543Z,77.10
2022-08-21T15:29:19.034Z,76.95
2022-08-21T15:32:00.732Z,76.99
2022-08-21T15:34:30.063Z,76.61
2022-08-21T15:36:58.744Z,76.79
2022-08-21T15:39:31.267Z,76.77
2022-08-21T15:42:02.045Z,76.57
2022-08-21T15:44:42.599Z,76.53
2022-08-21T15:47:15.674Z,76.66
2022-08-21T15:49:46.369Z,76.59
2022-08-21T15:52:16.144Z,76.51
2022-08-21T15:54:43.535Z,76.58
2022-08-21T15:57:13.351Z,76.23
2022-08-21T15:59:43.464Z,76.38
2022-08-21T16:02:15.527Z,76.13
2022-08-21T16:04:42.909Z,76.33
2022-08-21T16:07:11.015Z,75.87
2022-08-21T16:09:38.384Z,75.90
2022-08-21T16:12:07.024Z,75.21
2022-08-21T16:14:37.443Z,75.32
2022-08-21T16:17:08.864Z,75.01
2022-08-21T16:19:37.463Z,75.08
2022-08-21T16:22:05.103Z,74.75
2022-08-21T16:24:32.703Z,74.59
2022-08-21T16:27:02.691Z,74.66
2022-08-21T16:29:37.184Z,74.64
2022-08-21T16:32:06.318Z,74.81
2022-08-21T16:34:34.344Z,74.84
2022-08-21T16:37:01.679Z,74.51
2022-08-21T16:39:29.104Z,74.45
2022-08-21T16:41:56.363Z,74.25
2022-08-21T16:44:23.613Z,74.43
2022-08-21T16:46:51.014Z,73.99
2022-08-21T16:49:18.287Z,74.05
2022-08-21T16:51:45.536Z,73.74
2022-08-21T16:54:14.157Z,73.59
2022-08-21T16:56:45.702Z,73.62
2022-08-21T16:59:14.833Z,73.54
2022-08-21T17:01:46.093Z,73.60
2022-08-21T17:04:13.784Z,73.83
2022-08-21T17:06:41.190Z,74.09
2022-08-21T17:09:08.520Z,73.81
2022-08-21T17:11:40.251Z,73.72
2022-08-21T17:14:11.048Z,73.79
2022-08-21T17:16:40.615Z,73.82
2022-08-21T17:19:08.868Z,74.49
2022-08-21T17:21:36.222Z,75.63
2022-08-21T17:24:03.740Z,76.10
2022-08-21T17:26:31.107Z,76.86
2022-08-21T17:28:58.918Z,77.41
2022-08-21T17:31:26.243Z,77.71
2022-08-21T17:33:54.846Z,78.02
2022-08-21T17:36:26.971Z,78.45
2022-08-21T17:38:54.659Z,78.51
2022-08-21T17:41:22.745Z,78.66
2022-08-21T17:43:51.779Z,78.86
2022-08-21T17:46:28.379Z,78.90
2022-08-21T17:48:57.287Z,79.32
2022-08-21T17:51:25.038Z,79.30
2022-08-21T17:53:52.343Z,79.18
2022-08-21T17:56:21.062Z,79.08
2022-08-21T17:58:52.141Z,79.06
2022-08-21T18:01:20.559Z,78.94
2022-08-21T18:03:48.960Z,78.83
2022-08-21T18:06:18.217Z,78.77
2022-08-21T18:08:46.264Z,78.70
2022-08-21T18:11:23.220Z,78.58
2022-08-21T18:13:53.029Z,78.17
2022-08-21T18:16:20.509Z,78.00
2022-08-21T18:18:49.321Z,77.70
2022-08-21T18:21:16.853Z,77.52
2022-08-21T18:23:45.115Z,77.44
2022-08-21T18:26:16.101Z,77.41
2022-08-21T18:28:44.594Z,77.26
2022-08-21T18:31:12.867Z,77.11
2022-08-21T18:33:43.696Z,76.51
2022-08-21T18:36:26.832Z,76.22
2022-08-21T18:38:54.893Z,76.32
2022-08-21T18:41:22.833Z,75.96
2022-08-21T18:43:50.222Z,75.75
2022-08-21T18:46:17.740Z,75.40
2022-08-21T18:48:45.050Z,75.17
2022-08-21T18:51:12.562Z,75.00
2022-08-21T18:53:39.863Z,74.83
2022-08-21T18:56:15.541Z,74.38
2022-08-21T18:58:58.663Z,74.45
2022-08-21T19:01:26.425Z,73.85
2022-08-21T19:03:53.609Z,73.45
2022-08-21T19:06:20.775Z,73.05
2022-08-21T19:08:47.912Z,73.03
2022-08-21T19:11:16.600Z,72.35
2022-08-21T19:13:53.905Z,72.19
2022-08-21T19:16:21.960Z,71.98
2022-08-21T19:18:49.479Z,71.88
2022-08-21T19:21:16.689Z,71.84
2022-08-21T19:23:52.674Z,71.50
2022-08-21T19:26:23.179Z,71.32
2022-08-21T19:28:54.742Z,71.01
2022-08-21T19:31:29.732Z,70.59
2022-08-21T19:34:12.290Z,70.54
2022-08-21T19:36:43.922Z,70.62
2022-08-21T19:39:12.660Z,70.43
2022-08-21T19:41:45.586Z,70.44
2022-08-21T19:44:18.071Z,69.73
2022-08-21T19:49:35.599Z,69.87
2022-08-21T19:52:11.865Z,69.86
2022-08-21T19:54:41.100Z,69.68
2022-08-21T19:57:10.988Z,69.37
2022-08-21T19:59:39.521Z,69.68
2022-08-21T20:02:08.047Z,69.93
2022-08-21T20:04:35.333Z,70.01
2022-08-21T20:07:02.649Z,69.68
2022-08-21T20:09:29.790Z,69.51
2022-08-21T20:11:58.945Z,69.79
2022-08-21T20:14:31.860Z,69.68
2022-08-21T20:17:08.384Z,69.70
2022-08-21T20:19:39.103Z,69.89
2022-08-21T20:22:07.199Z,70.26
2022-08-21T20:24:34.582Z,70.35
2022-08-21T20:29:51.633Z,70.52
2022-08-21T20:32:18.979Z,70.18
2022-08-21T20:34:46.156Z,69.58
2022-08-21T20:37:35.659Z,68.59
2022-08-21T20:40:11.829Z,67.51
2022-08-21T20:42:41.552Z,66.66
2022-08-21T20:45:12.245Z,66.44
2022-08-21T20:47:40.717Z,66.01
2022-08-21T20:50:13.918Z,65.90
2022-08-21T20:52:42.050Z,65.87
2022-08-21T20:55:15.625Z,65.63
2022-08-21T20:58:15.347Z,65.97
2022-08-21T21:00:46.140Z,66.02
2022-08-21T21:03:16.918Z,66.57
2022-08-21T21:05:53.497Z,66.70
2022-08-21T21:08:36.895Z,65.48
2022-08-21T21:11:19.412Z,65.45
2022-08-21T21:14:00.951Z,65.51
2022-08-21T21:16:38.683Z,64.81
2022-08-21T21:19:37.022Z,64.82
2022-08-21T21:22:11.220Z,64.36
2022-08-21T21:25:03.042Z,64.49
2022-08-21T21:28:12.846Z,64.65
2022-08-21T21:33:33.639Z,64.28
2022-08-21T21:36:26.729Z,64.38
2022-08-21T21:39:36.329Z,64.49
2022-08-21T21:42:50.900Z,64.76
2022-08-21T21:45:29.428Z,65.00
2022-08-21T21:48:22.624Z,65.33
2022-08-21T21:51:00.754Z,65.34
2022-08-21T21:53:37.510Z,65.64
2022-08-21T21:56:35.950Z,65.95
2022-08-21T21:59:43.499Z,66.45
2022-08-21T22:02:17.919Z,66.61
2022-08-21T22:05:32.563Z,67.52
2022-08-21T22:08:21.472Z,67.80
2022-08-21T22:14:10.506Z,68.78
2022-08-21T22:16:38.468Z,69.16
2022-08-21T22:19:29.458Z,69.09
2022-08-21T22:22:14.545Z,69.41
2022-08-21T22:24:48.143Z,69.43
2022-08-21T22:27:27.760Z,69.52
2022-08-21T22:30:00.371Z,69.82
2022-08-21T22:32:50.283Z,69.96
2022-08-21T22:35:24.263Z,70.16
2022-08-21T22:38:00.090Z,70.48
2022-08-21T22:40:35.053Z,71.19
2022-08-21T22:43:08.418Z,71.38
2022-08-21T22:46:05.777Z,72.01
2022-08-21T22:48:54.316Z,72.50
2022-08-21T22:51:41.003Z,73.77
2022-08-21T22:54:21.711Z,73.73
2022-08-21T22:57:03.172Z,74.32
2022-08-21T22:59:37.283Z,74.91
2022-08-21T23:02:22.545Z,75.38
2022-08-21T23:04:51.548Z,75.88
2022-08-21T23:10:27.138Z,76.56
2022-08-21T23:13:12.423Z,77.14
2022-08-21T23:16:15.805Z,77.41
2022-08-21T23:19:03.000Z,78.08
2022-08-21T23:21:51.032Z,78.12
2022-08-21T23:24:50.399Z,78.37
2022-08-21T23:27:38.391Z,78.45
2022-08-21T23:30:49.058Z,78.74
2022-08-21T23:33:40.757Z,78.82
2022-08-21T23:36:35.439Z,78.97
2022-08-21T23:39:08.470Z,78.95
2022-08-21T23:41:54.223Z,79.25
2022-08-21T23:44:29.662Z,79.25
2022-08-21T23:47:21.072Z,79.42
2022-08-21T23:49:53.903Z,79.56
2022-08-21T23:52:49.499Z,79.81
2022-08-21T23:55:16.675Z,79.70
2022-08-21T23:58:04.584Z,80.07
